createdAt,value
2019-06-26T00:00:56.196Z,99059.33
2019-06-26T00:03:26.450Z,99056.58
2019-06-26T00:05:56.826Z,99056.81
2019-06-26T00:08:27.330Z,99058.47
2019-06-26T00:10:57.996Z,99053.30
2019-06-26T00:13:28.834Z,99055.61
2019-06-26T00:15:59.124Z,99057.05
2019-06-26T00:18:29.901Z,99059.02
2019-06-26T00:21:00.224Z,99061.22
2019-06-26T00:23:30.882Z,99059.73
2019-06-26T00:26:01.387Z,99072.14
2019-06-26T00:28:31.644Z,99062.68
2019-06-26T00:31:02.207Z,99066.66
2019-06-26T00:33:32.390Z,99066.72
2019-06-26T00:36:02.656Z,99069.22
2019-06-26T00:38:33.106Z,99066.58
2019-06-26T00:43:42.900Z,99065.41
2019-06-26T00:46:14.788Z,99072.17
2019-06-26T00:48:45.278Z,99075.77
2019-06-26T00:51:15.657Z,99075.72
2019-06-26T00:53:46.550Z,99079.75
2019-06-26T00:56:16.831Z,99076.46
2019-06-26T00:58:47.382Z,99076.17
2019-06-26T01:01:18.008Z,99077.73
2019-06-26T01:03:50.032Z,99075.27
2019-06-26T01:06:37.952Z,99068.20
2019-06-26T01:09:09.231Z,99072.38
2019-06-26T01:11:39.495Z,99070.48
2019-06-26T01:14:09.785Z,99073.34
2019-06-26T01:16:40.098Z,99074.39
2019-06-26T01:19:10.293Z,99072.16
2019-06-26T01:21:40.598Z,99067.81
2019-06-26T01:24:10.855Z,99068.92
2019-06-26T01:26:41.392Z,99071.74
2019-06-26T01:29:12.235Z,99073.38
2019-06-26T01:31:42.859Z,99071.54
2019-06-26T01:34:13.080Z,99069.16
2019-06-26T01:36:43.256Z,99077.70
2019-06-26T01:39:13.636Z,99074.59
2019-06-26T01:41:43.854Z,99072.91
2019-06-26T01:44:15.672Z,99073.17
2019-06-26T01:46:45.961Z,99070.45
2019-06-26T01:49:16.832Z,99070.84
2019-06-26T01:51:47.373Z,99064.52
2019-06-26T01:54:17.898Z,99072.47
2019-06-26T01:56:48.158Z,99069.40
2019-06-26T01:59:18.847Z,99077.19
2019-06-26T02:01:49.128Z,99074.41
2019-06-26T02:04:20.496Z,99076.08
2019-06-26T02:06:51.175Z,99077.84
2019-06-26T02:09:21.473Z,99075.25
2019-06-26T02:11:51.710Z,99084.58
2019-06-26T02:14:31.024Z,99087.70
2019-06-26T02:19:36.364Z,99080.39
2019-06-26T02:22:06.849Z,99085.94
2019-06-26T02:24:37.075Z,99086.32
2019-06-26T02:27:07.779Z,99088.25
2019-06-26T02:29:38.400Z,99088.25
2019-06-26T02:32:08.978Z,99084.38
2019-06-26T02:34:39.763Z,99083.75
2019-06-26T02:37:10.015Z,99086.55
2019-06-26T02:39:40.303Z,99085.93
2019-06-26T02:42:10.567Z,99091.11
2019-06-26T02:44:53.092Z,99092.92
2019-06-26T02:47:20.037Z,99091.91
2019-06-26T02:49:45.201Z,99086.46
2019-06-26T02:52:15.555Z,99089.19
2019-06-26T02:54:45.905Z,99087.65
2019-06-26T02:57:16.108Z,99091.35
2019-06-26T02:59:46.651Z,99089.39
2019-06-26T03:02:17.296Z,99090.34
2019-06-26T03:04:47.860Z,99092.29
2019-06-26T03:07:18.964Z,99099.66
2019-06-26T03:09:49.193Z,99098.44
2019-06-26T03:12:19.484Z,99104.05
2019-06-26T03:14:49.756Z,99102.37
2019-06-26T03:17:20.107Z,99104.05
2019-06-26T03:19:50.494Z,99101.86
2019-06-26T03:22:20.916Z,99106.11
2019-06-26T03:24:51.161Z,99101.11
2019-06-26T03:27:22.104Z,99112.72
2019-06-26T03:29:52.670Z,99114.15
2019-06-26T03:32:22.912Z,99118.86
2019-06-26T03:34:53.626Z,99117.56
2019-06-26T03:37:23.828Z,99120.28
2019-06-26T03:39:54.138Z,99128.05
2019-06-26T03:42:24.672Z,99121.94
2019-06-26T03:44:54.976Z,99123.91
2019-06-26T03:47:25.993Z,99129.88
2019-06-26T03:49:56.459Z,99129.17
2019-06-26T03:52:27.019Z,99113.50
2019-06-26T03:54:57.654Z,99120.17
2019-06-26T03:57:27.968Z,99124.95
2019-06-26T03:59:58.422Z,99127.32
2019-06-26T04:02:28.987Z,99126.48
2019-06-26T04:04:59.477Z,99129.84
2019-06-26T04:07:29.772Z,99122.28
2019-06-26T04:10:00.234Z,99122.94
2019-06-26T04:12:31.204Z,99120.67
2019-06-26T04:15:02.819Z,99129.17
2019-06-26T04:17:34.688Z,99140.03
2019-06-26T04:20:05.954Z,99135.22
2019-06-26T04:22:36.189Z,99131.86
2019-06-26T04:25:07.608Z,99131.58
2019-06-26T04:27:38.845Z,99144.14
2019-06-26T04:30:11.249Z,99141.39
2019-06-26T04:35:10.995Z,99146.17
2019-06-26T04:37:41.286Z,99145.55
2019-06-26T04:40:11.659Z,99145.84
2019-06-26T04:42:41.837Z,99139.20
2019-06-26T04:45:12.602Z,99142.70
2019-06-26T04:47:42.894Z,99144.34
2019-06-26T04:50:13.750Z,99142.27
2019-06-26T04:52:43.962Z,99149.02
2019-06-26T04:55:14.302Z,99138.07
2019-06-26T04:57:44.828Z,99143.27
2019-06-26T05:00:15.863Z,99148.27
2019-06-26T05:02:46.104Z,99145.56
2019-06-26T05:05:17.999Z,99145.31
2019-06-26T05:07:48.303Z,99150.02
2019-06-26T05:10:19.231Z,99149.98
2019-06-26T05:12:49.454Z,99149.06
2019-06-26T05:15:21.172Z,99148.37
2019-06-26T05:17:51.507Z,99145.98
2019-06-26T05:20:22.758Z,99149.51
2019-06-26T05:22:53.402Z,99146.91
2019-06-26T05:25:23.792Z,99154.52
2019-06-26T05:27:54.394Z,99142.10
2019-06-26T05:30:25.181Z,99142.76
2019-06-26T05:32:55.430Z,99147.08
2019-06-26T05:35:26.014Z,99147.33
2019-06-26T05:37:56.267Z,99151.66
2019-06-26T05:40:26.481Z,99148.02
2019-06-26T05:42:56.741Z,99154.04
2019-06-26T05:45:26.953Z,99155.47
2019-06-26T05:47:57.521Z,99161.22
2019-06-26T05:50:28.153Z,99157.70
2019-06-26T05:52:58.863Z,99158.33
2019-06-26T05:55:29.164Z,99165.64
2019-06-26T05:57:59.669Z,99169.38
2019-06-26T06:00:30.065Z,99170.72
2019-06-26T06:03:00.266Z,99165.92
2019-06-26T06:05:30.676Z,99158.69
2019-06-26T06:08:01.229Z,99161.59
2019-06-26T06:10:31.520Z,99161.22
2019-06-26T06:13:01.752Z,99167.35
2019-06-26T06:15:32.518Z,99162.98
2019-06-26T06:18:02.928Z,99163.34
2019-06-26T06:20:38.773Z,99162.45
2019-06-26T06:23:10.064Z,99161.31
2019-06-26T06:25:40.741Z,99166.28
2019-06-26T06:28:11.270Z,99165.48
2019-06-26T06:30:42.248Z,99165.58
2019-06-26T06:33:12.862Z,99167.19
2019-06-26T06:35:44.128Z,99166.34
2019-06-26T06:38:14.838Z,99161.00
2019-06-26T06:40:46.122Z,99165.34
2019-06-26T06:43:16.975Z,99165.36
2019-06-26T06:45:47.926Z,99163.03
2019-06-26T06:48:18.600Z,99161.52
2019-06-26T06:50:49.022Z,99163.19
2019-06-26T06:53:19.285Z,99162.34
2019-06-26T06:55:49.589Z,99169.50
2019-06-26T06:58:19.829Z,99175.81
2019-06-26T07:00:50.179Z,99176.52
2019-06-26T07:03:20.884Z,99172.69
2019-06-26T07:05:51.047Z,99176.45
2019-06-26T07:08:21.304Z,99178.20
2019-06-26T07:10:51.639Z,99171.30
2019-06-26T07:13:21.999Z,99178.53
2019-06-26T07:15:52.327Z,99181.46
2019-06-26T07:18:22.870Z,99182.36
2019-06-26T07:20:53.394Z,99182.94
2019-06-26T07:23:24.263Z,99187.31
2019-06-26T07:25:54.622Z,99183.17
2019-06-26T07:28:25.277Z,99187.02
2019-06-26T07:30:55.828Z,99184.23
2019-06-26T07:33:26.143Z,99188.16
2019-06-26T07:35:56.494Z,99183.95
2019-06-26T07:38:26.737Z,99185.83
2019-06-26T07:40:57.005Z,99184.45
2019-06-26T07:43:27.569Z,99186.11
2019-06-26T07:45:58.809Z,99185.76
2019-06-26T07:48:29.381Z,99185.41
2019-06-26T07:50:59.802Z,99181.57
2019-06-26T07:53:30.320Z,99189.77
2019-06-26T07:56:00.642Z,99185.64
2019-06-26T07:58:30.918Z,99182.73
2019-06-26T08:01:01.280Z,99173.47
2019-06-26T08:03:31.604Z,99180.58
2019-06-26T08:06:02.004Z,99182.72
2019-06-26T08:08:32.367Z,99183.33
2019-06-26T08:11:06.274Z,99186.81
2019-06-26T08:13:34.687Z,99180.05
2019-06-26T08:16:05.533Z,99181.86
2019-06-26T08:18:35.871Z,99180.78
2019-06-26T08:21:12.471Z,99177.40
2019-06-26T08:23:39.516Z,99185.45
2019-06-26T08:26:10.225Z,99182.50
2019-06-26T08:28:41.036Z,99184.71
2019-06-26T08:31:11.720Z,99190.02
2019-06-26T08:33:42.262Z,99184.96
2019-06-26T08:36:12.560Z,99181.59
2019-06-26T08:38:42.847Z,99184.87
2019-06-26T08:41:13.111Z,99189.14
2019-06-26T08:43:43.428Z,99185.56
2019-06-26T08:46:14.190Z,99195.92
2019-06-26T08:48:44.428Z,99192.20
2019-06-26T08:51:14.696Z,99195.52
2019-06-26T08:53:44.974Z,99190.82
2019-06-26T08:56:15.262Z,99191.23
2019-06-26T08:58:45.598Z,99187.90
2019-06-26T09:01:15.977Z,99189.84
2019-06-26T09:03:46.247Z,99189.20
2019-06-26T09:06:17.067Z,99188.17
2019-06-26T09:08:47.395Z,99193.69
2019-06-26T09:11:17.731Z,99189.12
2019-06-26T09:13:48.104Z,99193.03
2019-06-26T09:16:18.404Z,99184.66
2019-06-26T09:18:49.297Z,99184.66
2019-06-26T09:21:19.556Z,99187.98
2019-06-26T09:23:49.813Z,99185.91
2019-06-26T09:26:20.570Z,99178.45
2019-06-26T09:28:51.222Z,99181.98
2019-06-26T09:31:21.436Z,99185.13
2019-06-26T09:33:52.078Z,99184.77
2019-06-26T09:36:22.309Z,99174.38
2019-06-26T09:38:52.574Z,99178.46
2019-06-26T09:41:22.943Z,99173.20
2019-06-26T09:43:53.360Z,99185.55
2019-06-26T09:46:23.690Z,99187.68
2019-06-26T09:48:54.062Z,99191.23
2019-06-26T09:51:24.856Z,99185.26
2019-06-26T09:53:55.238Z,99185.22
2019-06-26T09:56:25.623Z,99182.28
2019-06-26T09:58:56.014Z,99181.73
2019-06-26T10:01:26.745Z,99181.59
2019-06-26T10:03:57.406Z,99179.80
2019-06-26T10:06:27.973Z,99181.78
2019-06-26T10:08:58.539Z,99176.55
2019-06-26T10:11:29.930Z,99170.41
2019-06-26T10:14:00.305Z,99168.63
2019-06-26T10:16:30.976Z,99170.08
2019-06-26T10:19:10.132Z,99172.88
2019-06-26T10:21:34.976Z,99171.66
2019-06-26T10:24:05.279Z,99172.78
2019-06-26T10:26:35.487Z,99171.62
2019-06-26T10:29:06.048Z,99170.67
2019-06-26T10:31:36.301Z,99161.27
2019-06-26T10:34:09.851Z,99165.27
2019-06-26T10:36:38.591Z,99161.42
2019-06-26T10:39:09.599Z,99159.77
2019-06-26T10:41:40.103Z,99165.25
2019-06-26T10:44:10.390Z,99162.02
2019-06-26T10:46:40.730Z,99154.47
2019-06-26T10:49:25.827Z,99160.62
2019-06-26T10:51:43.012Z,99162.27
2019-06-26T10:54:13.282Z,99160.33
2019-06-26T10:56:43.550Z,99158.45
2019-06-26T10:59:13.809Z,99163.36
2019-06-26T11:01:44.046Z,99155.28
2019-06-26T11:04:14.390Z,99149.89
2019-06-26T11:06:44.694Z,99149.89
2019-06-26T11:09:15.341Z,99153.63
2019-06-26T11:11:45.552Z,99153.05
2019-06-26T11:14:15.917Z,99151.69
2019-06-26T11:16:46.300Z,99147.69
2019-06-26T11:19:16.608Z,99139.16
2019-06-26T11:21:46.887Z,99142.70
2019-06-26T11:24:17.395Z,99140.23
2019-06-26T11:26:47.711Z,99143.11
2019-06-26T11:29:18.003Z,99146.09
2019-06-26T11:31:48.662Z,99148.23
2019-06-26T11:34:19.317Z,99141.84
2019-06-26T11:37:03.095Z,99141.58
2019-06-26T11:39:21.810Z,99138.98
2019-06-26T11:41:52.101Z,99133.27
2019-06-26T11:44:22.611Z,99133.38
2019-06-26T11:46:53.062Z,99129.48
2019-06-26T11:49:23.567Z,99132.27
2019-06-26T11:51:53.823Z,99130.03
2019-06-26T11:54:24.112Z,99125.02
2019-06-26T11:56:54.377Z,99129.90
2019-06-26T11:59:24.674Z,99123.73
2019-06-26T12:01:54.898Z,99124.38
2019-06-26T12:04:25.165Z,99128.20
2019-06-26T12:06:55.321Z,99118.20
2019-06-26T12:09:25.525Z,99118.25
2019-06-26T12:11:55.772Z,99114.98
2019-06-26T12:14:26.354Z,99111.59
2019-06-26T12:16:56.628Z,99114.95
2019-06-26T12:19:26.794Z,99116.03
2019-06-26T12:21:57.084Z,99111.67
2019-06-26T12:24:27.243Z,99110.28
2019-06-26T12:26:57.513Z,99110.39
2019-06-26T12:29:27.992Z,99108.05
2019-06-26T12:31:58.257Z,99103.98
2019-06-26T12:34:28.461Z,99108.77
2019-06-26T12:36:58.848Z,99103.19
2019-06-26T12:39:29.112Z,99107.77
2019-06-26T12:41:59.555Z,99104.92
2019-06-26T12:44:29.870Z,99100.59
2019-06-26T12:47:00.480Z,99099.92
2019-06-26T12:49:30.736Z,99089.47
2019-06-26T12:52:01.043Z,99091.50
2019-06-26T12:54:31.279Z,99090.05
2019-06-26T12:57:01.549Z,99086.39
2019-06-26T12:59:31.866Z,99083.94
2019-06-26T13:02:02.170Z,99085.35
2019-06-26T13:04:32.396Z,99089.00
2019-06-26T13:07:02.577Z,99070.84
2019-06-26T13:09:32.995Z,99072.46
2019-06-26T13:12:03.623Z,99071.64
2019-06-26T13:14:33.903Z,99068.65
2019-06-26T13:17:04.151Z,99074.63
2019-06-26T13:19:34.359Z,99059.91
2019-06-26T13:22:04.573Z,99060.56
2019-06-26T13:24:34.829Z,99063.63
2019-06-26T13:27:05.011Z,99065.34
2019-06-26T13:29:35.217Z,99068.70
2019-06-26T13:32:05.504Z,99064.33
2019-06-26T13:34:35.998Z,99060.48
2019-06-26T13:37:07.419Z,99061.42
2019-06-26T13:39:37.846Z,99068.64
2019-06-26T13:42:08.113Z,99065.61
2019-06-26T13:44:38.604Z,99061.23
2019-06-26T13:47:08.960Z,99059.03
2019-06-26T13:49:39.582Z,99049.67
2019-06-26T13:52:09.818Z,99051.76
2019-06-26T13:54:40.688Z,99057.06
2019-06-26T13:57:10.992Z,99055.89
2019-06-26T13:59:41.229Z,99050.25
2019-06-26T14:02:11.495Z,99050.24
2019-06-26T14:04:41.739Z,99050.86
2019-06-26T14:07:12.069Z,99050.86
2019-06-26T14:09:42.569Z,99042.56
2019-06-26T14:12:12.874Z,99040.31
2019-06-26T14:14:56.956Z,99044.17
2019-06-26T14:17:15.322Z,99039.91
2019-06-26T14:19:45.520Z,99035.03
2019-06-26T14:22:15.841Z,99040.41
2019-06-26T14:24:46.080Z,99036.00
2019-06-26T14:27:17.274Z,99030.50
2019-06-26T14:29:47.647Z,99029.47
2019-06-26T14:32:17.869Z,99031.97
2019-06-26T14:34:48.439Z,99020.41
2019-06-26T14:37:18.759Z,99025.73
2019-06-26T14:39:49.255Z,99015.77
2019-06-26T14:42:19.695Z,99016.34
2019-06-26T14:44:52.706Z,99017.13
2019-06-26T14:47:22.505Z,99013.41
2019-06-26T14:49:52.684Z,99013.06
2019-06-26T14:52:23.157Z,99007.02
2019-06-26T14:54:53.363Z,99000.44
2019-06-26T14:57:25.939Z,99011.70
2019-06-26T14:59:55.735Z,99004.16
2019-06-26T15:02:26.199Z,99008.09
2019-06-26T15:04:56.523Z,98997.23
2019-06-26T15:07:27.194Z,98992.92
2019-06-26T15:09:58.819Z,98991.44
2019-06-26T15:12:29.068Z,98999.12
2019-06-26T15:14:59.350Z,98990.91
2019-06-26T15:17:29.633Z,98988.48
2019-06-26T15:20:00.016Z,98981.67
2019-06-26T15:22:30.521Z,98987.87
2019-06-26T15:25:00.750Z,98977.83
2019-06-26T15:27:31.304Z,98975.98
2019-06-26T15:30:01.591Z,98974.07
2019-06-26T15:32:33.675Z,98974.15
2019-06-26T15:35:04.583Z,98973.42
2019-06-26T15:37:34.786Z,98971.42
2019-06-26T15:40:06.611Z,98969.52
2019-06-26T15:42:36.763Z,98959.05
2019-06-26T15:45:08.631Z,98965.63
2019-06-26T15:47:38.838Z,98959.65
2019-06-26T15:50:10.871Z,98962.30
2019-06-26T15:52:41.807Z,98954.53
2019-06-26T15:55:12.327Z,98964.59
2019-06-26T15:57:42.593Z,98950.39
2019-06-26T16:00:13.586Z,98951.02
2019-06-26T16:02:43.796Z,98949.11
2019-06-26T16:05:14.231Z,98945.56
2019-06-26T16:07:44.658Z,98945.11
2019-06-26T16:10:14.912Z,98938.41
2019-06-26T16:12:45.154Z,98948.36
2019-06-26T16:15:15.904Z,98937.57
2019-06-26T16:18:09.380Z,98936.16
2019-06-26T16:20:40.543Z,98935.53
2019-06-26T16:23:11.012Z,98929.44
2019-06-26T16:25:41.816Z,98927.37
2019-06-26T16:28:11.996Z,98927.18
2019-06-26T16:30:42.573Z,98929.16
2019-06-26T16:33:13.269Z,98929.59
2019-06-26T16:35:43.458Z,98921.84
2019-06-26T16:38:14.096Z,98922.55
2019-06-26T16:40:44.571Z,98927.33
2019-06-26T16:43:14.919Z,98923.52
2019-06-26T16:45:45.591Z,98917.20
2019-06-26T16:48:16.240Z,98917.93
2019-06-26T16:50:46.504Z,98918.85
2019-06-26T16:53:17.580Z,98925.47
2019-06-26T16:55:47.988Z,98923.70
2019-06-26T16:58:18.460Z,98922.02
2019-06-26T17:00:48.737Z,98925.70
2019-06-26T17:03:19.455Z,98921.45
2019-06-26T17:05:49.698Z,98918.70
2019-06-26T17:08:19.995Z,98919.91
2019-06-26T17:10:50.242Z,98914.41
2019-06-26T17:13:20.624Z,98922.42
2019-06-26T17:15:50.881Z,98913.25
2019-06-26T17:18:21.534Z,98912.91
2019-06-26T17:20:52.047Z,98920.58
2019-06-26T17:23:23.273Z,98920.51
2019-06-26T17:25:53.566Z,98920.80
2019-06-26T17:28:24.004Z,98919.22
2019-06-26T17:30:54.267Z,98922.42
2019-06-26T17:33:24.713Z,98924.32
2019-06-26T17:35:55.559Z,98917.05
2019-06-26T17:38:25.890Z,98921.20
2019-06-26T17:40:59.321Z,98918.22
2019-06-26T17:43:28.101Z,98925.54
2019-06-26T17:45:58.379Z,98917.14
2019-06-26T17:48:29.503Z,98914.25
2019-06-26T17:50:59.763Z,98911.39
2019-06-26T17:53:29.975Z,98918.87
2019-06-26T17:56:00.193Z,98916.13
2019-06-26T17:58:30.704Z,98917.02
2019-06-26T18:01:01.351Z,98921.69
2019-06-26T18:03:31.958Z,98914.70
2019-06-26T18:06:02.488Z,98911.83
2019-06-26T18:08:33.365Z,98909.20
2019-06-26T18:11:03.671Z,98921.08
2019-06-26T18:13:34.559Z,98917.09
2019-06-26T18:16:05.213Z,98922.53
2019-06-26T18:18:37.608Z,98916.79
2019-06-26T18:21:08.472Z,98925.30
2019-06-26T18:23:38.858Z,98919.00
2019-06-26T18:26:13.506Z,98923.04
2019-06-26T18:28:41.340Z,98924.77
2019-06-26T18:31:11.808Z,98919.88
2019-06-26T18:33:44.343Z,98927.77
2019-06-26T18:36:14.419Z,98920.08
2019-06-26T18:38:45.315Z,98915.63
2019-06-26T18:41:18.633Z,98919.80
2019-06-26T18:43:48.869Z,98923.17
2019-06-26T18:46:19.667Z,98931.47
2019-06-26T18:48:49.846Z,98928.42
2019-06-26T18:51:20.528Z,98931.19
2019-06-26T18:53:53.905Z,98931.95
2019-06-26T18:56:23.121Z,98930.81
2019-06-26T18:58:53.451Z,98932.13
2019-06-26T19:01:24.167Z,98929.52
2019-06-26T19:03:54.740Z,98929.74
2019-06-26T19:06:26.366Z,98928.52
2019-06-26T19:08:56.700Z,98928.34
2019-06-26T19:11:27.384Z,98925.69
2019-06-26T19:13:57.917Z,98930.54
2019-06-26T19:16:28.393Z,98930.05
2019-06-26T19:18:59.130Z,98934.02
2019-06-26T19:21:29.440Z,98933.86
2019-06-26T19:24:09.467Z,98936.73
2019-06-26T19:26:32.322Z,98936.77
2019-06-26T19:29:03.345Z,98940.97
2019-06-26T19:31:33.650Z,98939.84
2019-06-26T19:34:04.133Z,98944.84
2019-06-26T19:36:49.069Z,98943.85
2019-06-26T19:39:08.193Z,98948.35
2019-06-26T19:41:38.537Z,98951.71
2019-06-26T19:44:09.214Z,98950.75
2019-06-26T19:46:41.893Z,98951.88
2019-06-26T19:49:11.489Z,98953.86
2019-06-26T19:51:41.761Z,98963.03
2019-06-26T19:54:26.030Z,98967.91
2019-06-26T19:56:43.945Z,98973.16
2019-06-26T19:59:14.224Z,98979.33
2019-06-26T20:01:44.579Z,98978.04
2019-06-26T20:04:15.267Z,98978.23
2019-06-26T20:06:47.166Z,98983.03
2019-06-26T20:09:17.938Z,98985.19
2019-06-26T20:11:49.332Z,98983.96
2019-06-26T20:14:19.989Z,98981.15
2019-06-26T20:16:50.540Z,98983.67
2019-06-26T20:19:21.680Z,98990.62
2019-06-26T20:21:52.806Z,98994.80
2019-06-26T20:24:23.709Z,98995.89
2019-06-26T20:26:54.377Z,99001.13
2019-06-26T20:29:25.331Z,98998.61
2019-06-26T20:31:55.724Z,99000.50
2019-06-26T20:34:31.510Z,99000.24
2019-06-26T20:37:01.866Z,98998.19
2019-06-26T20:39:32.146Z,99002.56
2019-06-26T20:42:02.808Z,98999.91
2019-06-26T20:44:34.179Z,99003.96
2019-06-26T20:47:04.474Z,99006.58
2019-06-26T20:49:34.997Z,99006.69
2019-06-26T20:52:05.448Z,99007.57
2019-06-26T20:54:35.757Z,99011.09
2019-06-26T20:57:06.527Z,99012.50
2019-06-26T20:59:38.032Z,99016.16
2019-06-26T21:02:08.492Z,99018.44
2019-06-26T21:04:39.178Z,99017.67
2019-06-26T21:07:09.755Z,99018.82
2019-06-26T21:09:40.923Z,99020.59
2019-06-26T21:12:12.975Z,99017.20
2019-06-26T21:14:43.546Z,99017.22
2019-06-26T21:17:13.763Z,99021.48
2019-06-26T21:19:44.094Z,99028.34
2019-06-26T21:22:14.447Z,99015.15
2019-06-26T21:24:44.677Z,99021.94
2019-06-26T21:27:15.408Z,99017.80
2019-06-26T21:29:46.006Z,99015.05
2019-06-26T21:32:16.349Z,99018.47
2019-06-26T21:34:47.088Z,99026.55
2019-06-26T21:37:17.379Z,99022.61
2019-06-26T21:39:47.888Z,99023.35
2019-06-26T21:42:18.325Z,99027.64
2019-06-26T21:44:48.889Z,99022.81
2019-06-26T21:47:19.557Z,99019.14
2019-06-26T21:49:50.623Z,99025.02
2019-06-26T21:52:21.793Z,99029.72
2019-06-26T21:54:52.794Z,99030.36
2019-06-26T21:57:41.168Z,99039.25
2019-06-26T22:00:32.573Z,99040.69
2019-06-26T22:03:21.031Z,99035.14
2019-06-26T22:05:52.879Z,99035.38
2019-06-26T22:08:41.549Z,99039.77
2019-06-26T22:11:13.105Z,99042.54
2019-06-26T22:13:43.660Z,99041.73
2019-06-26T22:16:13.877Z,99047.83
2019-06-26T22:18:44.247Z,99045.11
2019-06-26T22:21:14.497Z,99040.42
2019-06-26T22:23:44.983Z,99044.64
2019-06-26T22:26:15.201Z,99044.42
2019-06-26T22:28:45.731Z,99049.59
2019-06-26T22:31:16.139Z,99051.83
2019-06-26T22:33:46.736Z,99050.36
2019-06-26T22:36:16.981Z,99056.90
2019-06-26T22:38:47.271Z,99052.51
2019-06-26T22:41:17.485Z,99058.23
2019-06-26T22:43:47.797Z,99059.41
2019-06-26T22:46:18.208Z,99055.59
2019-06-26T22:48:48.526Z,99056.03
2019-06-26T22:51:19.772Z,99050.98
2019-06-26T22:53:50.331Z,99049.72
2019-06-26T22:56:21.202Z,99057.10
2019-06-26T22:58:51.804Z,99056.77
2019-06-26T23:01:22.517Z,99051.95
2019-06-26T23:03:52.725Z,99057.14
2019-06-26T23:06:23.838Z,99058.91
2019-06-26T23:11:34.097Z,99057.88
2019-06-26T23:14:04.398Z,99055.36
2019-06-26T23:16:34.681Z,99055.77
2019-06-26T23:19:04.943Z,99052.59
2019-06-26T23:21:36.275Z,99046.48
2019-06-26T23:24:06.518Z,99055.87
2019-06-26T23:26:36.996Z,99048.39
2019-06-26T23:29:07.652Z,99045.13
2019-06-26T23:31:38.001Z,99047.85
2019-06-26T23:34:08.289Z,99044.17
2019-06-26T23:36:38.576Z,99051.52
2019-06-26T23:39:08.838Z,99048.02
2019-06-26T23:41:39.053Z,99046.41
2019-06-26T23:44:09.282Z,99043.25
2019-06-26T23:46:39.505Z,99042.91
2019-06-26T23:49:10.978Z,99037.30
2019-06-26T23:51:41.851Z,99039.62
2019-06-26T23:54:12.097Z,99029.82
2019-06-26T23:56:42.455Z,99029.59
2019-06-26T23:59:12.691Z,99028.11
